createdAt,value
2022-12-31T00:01:26.579Z,3.67
2022-12-31T00:03:55.124Z,2.80
2022-12-31T00:06:34.380Z,3.10
2022-12-31T00:09:04.225Z,2.30
2022-12-31T00:11:38.534Z,2.20
2022-12-31T00:14:06.421Z,2.20
2022-12-31T00:16:36.767Z,2.10
2022-12-31T00:19:05.048Z,2.33
2022-12-31T00:21:33.063Z,2.05
2022-12-31T00:24:00.680Z,2.42
2022-12-31T00:26:30.473Z,3.25
2022-12-31T00:28:58.823Z,2.92
2022-12-31T00:31:28.431Z,2.03
2022-12-31T00:33:56.585Z,2.20
2022-12-31T00:36:35.295Z,2.75
2022-12-31T00:39:04.297Z,2.30
2022-12-31T00:41:31.369Z,2.53
2022-12-31T00:43:58.595Z,2.38
2022-12-31T00:46:26.081Z,2.58
2022-12-31T00:48:53.177Z,2.47
2022-12-31T00:51:23.159Z,2.13
2022-12-31T00:53:50.218Z,2.10
2022-12-31T00:56:20.035Z,1.80
2022-12-31T00:58:47.366Z,1.70
2022-12-31T01:01:30.800Z,2.38
2022-12-31T01:04:05.039Z,2.13
2022-12-31T01:06:32.454Z,2.00
2022-12-31T01:08:59.663Z,1.85
2022-12-31T01:11:29.159Z,2.70
2022-12-31T01:14:02.958Z,2.10
2022-12-31T01:16:32.736Z,2.35
2022-12-31T01:19:02.279Z,2.17
2022-12-31T01:21:30.067Z,2.13
2022-12-31T01:23:58.513Z,1.85
2022-12-31T01:26:25.700Z,1.80
2022-12-31T01:28:52.553Z,1.80
2022-12-31T01:31:21.235Z,2.17
2022-12-31T01:33:48.385Z,2.75
2022-12-31T01:36:25.638Z,1.95
2022-12-31T01:38:54.696Z,1.60
2022-12-31T01:41:24.695Z,1.60
2022-12-31T01:43:56.074Z,1.50
2022-12-31T01:46:32.099Z,2.13
2022-12-31T01:49:04.753Z,1.77
2022-12-31T01:51:34.978Z,1.60
2022-12-31T01:54:05.006Z,5.38
2022-12-31T01:56:32.633Z,1.73
2022-12-31T01:58:59.781Z,2.40
2022-12-31T02:01:31.075Z,1.40
2022-12-31T02:03:59.147Z,4.50
2022-12-31T02:06:35.930Z,1.30
2022-12-31T02:09:03.051Z,1.20
2022-12-31T02:11:34.495Z,1.20
2022-12-31T02:14:06.129Z,1.10
2022-12-31T02:16:46.088Z,1.73
2022-12-31T02:19:34.752Z,1.35
2022-12-31T02:22:30.783Z,0.90
2022-12-31T02:25:21.796Z,1.42
2022-12-31T02:28:12.733Z,1.80
2022-12-31T02:30:43.213Z,1.33
2022-12-31T02:33:23.115Z,2.70
2022-12-31T02:35:58.828Z,0.93
2022-12-31T02:38:35.662Z,2.05
2022-12-31T02:41:02.650Z,1.77
2022-12-31T02:43:29.615Z,0.80
2022-12-31T02:46:24.362Z,1.27
2022-12-31T02:49:09.259Z,1.63
2022-12-31T02:51:50.942Z,0.90
2022-12-31T02:54:20.093Z,0.80
2022-12-31T02:57:03.103Z,3.13
2022-12-31T03:00:17.406Z,0.80
2022-12-31T03:02:46.537Z,0.98
2022-12-31T03:05:15.646Z,0.90
2022-12-31T03:07:43.976Z,1.95
2022-12-31T03:10:11.065Z,4.10
2022-12-31T03:12:48.820Z,2.05
2022-12-31T03:15:28.815Z,2.08
2022-12-31T03:18:08.707Z,1.17
2022-12-31T03:20:55.768Z,1.10
2022-12-31T03:23:50.062Z,0.73
2022-12-31T03:26:16.810Z,0.90
2022-12-31T03:28:47.589Z,0.80
2022-12-31T03:31:14.960Z,0.65
2022-12-31T03:33:42.067Z,2.13
2022-12-31T03:36:12.966Z,0.70
2022-12-31T03:38:40.717Z,1.65
2022-12-31T03:41:10.288Z,0.63
2022-12-31T03:43:37.129Z,1.17
2022-12-31T03:46:03.917Z,0.50
2022-12-31T03:48:30.656Z,0.65
2022-12-31T03:50:57.409Z,0.63
2022-12-31T03:53:24.532Z,2.20
2022-12-31T03:55:52.750Z,0.50
2022-12-31T03:58:19.560Z,0.40
2022-12-31T04:00:47.357Z,0.63
2022-12-31T04:03:14.213Z,0.40
2022-12-31T04:05:41.179Z,1.35
2022-12-31T04:08:08.063Z,0.77
2022-12-31T04:10:34.869Z,0.75
2022-12-31T04:13:04.511Z,0.45
2022-12-31T04:15:31.860Z,2.40
2022-12-31T04:17:58.795Z,0.70
2022-12-31T04:20:25.604Z,0.95
2022-12-31T04:22:52.417Z,0.57
2022-12-31T04:25:19.240Z,0.77
2022-12-31T04:27:46.205Z,2.35
2022-12-31T04:30:15.668Z,1.67
2022-12-31T04:32:42.682Z,2.10
2022-12-31T04:35:11.059Z,1.67
2022-12-31T04:37:38.078Z,1.73
2022-12-31T04:40:08.640Z,0.98
2022-12-31T04:42:36.429Z,0.80
2022-12-31T04:45:04.009Z,0.82
2022-12-31T04:47:31.070Z,1.67
2022-12-31T04:50:00.374Z,2.42
2022-12-31T04:52:27.530Z,2.55
2022-12-31T04:54:54.308Z,1.23
2022-12-31T04:57:21.100Z,1.25
2022-12-31T04:59:48.032Z,0.77
2022-12-31T05:02:15.053Z,0.70
2022-12-31T05:04:43.456Z,1.17
2022-12-31T05:07:10.236Z,1.80
2022-12-31T05:09:37.003Z,0.93
2022-12-31T05:12:03.905Z,1.33
2022-12-31T05:14:30.654Z,2.78
2022-12-31T05:16:58.633Z,1.25
2022-12-31T05:19:25.600Z,1.63
2022-12-31T05:22:11.273Z,1.67
2022-12-31T05:24:38.349Z,1.45
2022-12-31T05:27:05.241Z,0.85
2022-12-31T05:29:32.051Z,1.02
2022-12-31T05:31:58.932Z,0.47
2022-12-31T05:34:25.663Z,1.45
2022-12-31T05:36:52.997Z,3.22
2022-12-31T05:39:19.751Z,1.60
2022-12-31T05:41:46.571Z,1.10
2022-12-31T05:44:13.455Z,2.13
2022-12-31T05:46:40.225Z,1.88
2022-12-31T05:49:07.039Z,0.80
2022-12-31T05:51:33.948Z,1.92
2022-12-31T05:54:00.747Z,0.75
2022-12-31T05:56:27.587Z,0.70
2022-12-31T05:58:54.424Z,0.82
2022-12-31T06:01:21.874Z,1.35
2022-12-31T06:03:48.716Z,0.98
2022-12-31T06:06:15.553Z,1.20
2022-12-31T06:08:42.393Z,0.85
2022-12-31T06:11:09.162Z,1.25
2022-12-31T06:13:35.951Z,0.80
2022-12-31T06:16:07.479Z,2.88
2022-12-31T06:18:34.348Z,0.50
2022-12-31T06:21:03.984Z,1.60
2022-12-31T06:23:31.490Z,2.15
2022-12-31T06:26:05.631Z,0.85
2022-12-31T06:28:32.773Z,0.68
2022-12-31T06:31:07.594Z,1.15
2022-12-31T06:33:35.137Z,0.85
2022-12-31T06:36:11.741Z,1.08
2022-12-31T06:38:40.668Z,1.42
2022-12-31T06:41:10.269Z,1.33
2022-12-31T06:43:52.130Z,1.85
2022-12-31T06:46:19.020Z,1.15
2022-12-31T06:48:46.048Z,0.60
2022-12-31T06:51:17.424Z,1.20
2022-12-31T06:53:45.946Z,1.58
2022-12-31T06:56:17.208Z,2.55
2022-12-31T06:58:44.454Z,1.83
2022-12-31T07:01:29.535Z,1.13
2022-12-31T07:04:17.358Z,2.47
2022-12-31T07:06:51.449Z,2.08
2022-12-31T07:09:29.905Z,1.95
2022-12-31T07:12:20.463Z,1.00
2022-12-31T07:14:59.387Z,0.68
2022-12-31T07:17:56.263Z,0.90
2022-12-31T07:20:23.325Z,1.27
2022-12-31T07:22:50.361Z,1.85
2022-12-31T07:25:18.372Z,0.70
2022-12-31T07:28:19.573Z,1.95
2022-12-31T07:30:58.735Z,0.70
2022-12-31T07:33:59.594Z,1.38
2022-12-31T07:36:43.070Z,1.17
2022-12-31T07:39:40.734Z,1.33
2022-12-31T07:42:49.697Z,1.48
2022-12-31T07:45:54.930Z,1.15
2022-12-31T07:48:31.857Z,1.67
2022-12-31T07:50:59.054Z,0.80
2022-12-31T07:53:26.199Z,1.60
2022-12-31T07:55:59.074Z,1.20
2022-12-31T07:58:52.009Z,1.38
2022-12-31T08:01:35.096Z,0.50
2022-12-31T08:04:27.458Z,0.52
2022-12-31T08:07:35.254Z,1.85
2022-12-31T08:10:17.673Z,1.65
2022-12-31T08:12:47.154Z,1.60
2022-12-31T08:15:24.133Z,1.60
2022-12-31T08:17:54.491Z,1.00
2022-12-31T08:20:25.730Z,0.77
2022-12-31T08:23:13.666Z,1.90
2022-12-31T08:25:40.387Z,0.88
2022-12-31T08:28:16.175Z,0.65
2022-12-31T08:30:49.241Z,1.42
2022-12-31T08:33:43.888Z,1.60
2022-12-31T08:36:10.585Z,1.97
2022-12-31T08:38:51.047Z,1.02
2022-12-31T08:41:43.112Z,0.50
2022-12-31T08:44:13.121Z,0.98
2022-12-31T08:47:16.893Z,0.55
2022-12-31T08:49:45.845Z,1.02
2022-12-31T08:52:20.122Z,1.70
2022-12-31T08:54:47.297Z,2.83
2022-12-31T08:57:42.200Z,0.70
2022-12-31T09:00:14.929Z,1.20
2022-12-31T09:03:25.262Z,1.35
2022-12-31T09:06:27.042Z,1.33
2022-12-31T09:09:21.702Z,1.35
2022-12-31T09:12:10.010Z,0.73
2022-12-31T09:14:48.181Z,1.15
2022-12-31T09:17:21.048Z,1.75
2022-12-31T09:19:48.163Z,1.00
2022-12-31T09:22:15.303Z,2.15
2022-12-31T09:24:42.326Z,1.20
2022-12-31T09:27:30.147Z,2.33
2022-12-31T09:30:11.682Z,0.60
2022-12-31T09:33:00.744Z,1.90
2022-12-31T09:36:05.314Z,0.80
2022-12-31T09:39:29.550Z,0.95
2022-12-31T09:42:32.832Z,2.15
2022-12-31T09:45:25.224Z,1.23
2022-12-31T09:48:26.377Z,0.70
2022-12-31T09:51:26.870Z,1.58
2022-12-31T09:54:11.897Z,0.50
2022-12-31T09:59:51.318Z,1.13
2022-12-31T10:03:02.270Z,1.20
2022-12-31T10:05:58.129Z,0.68
2022-12-31T10:09:09.491Z,0.90
2022-12-31T10:12:04.835Z,2.35
2022-12-31T10:17:40.579Z,0.65
2022-12-31T10:20:16.811Z,1.35
2022-12-31T10:23:04.585Z,0.75
2022-12-31T10:25:40.243Z,0.90
2022-12-31T10:28:28.101Z,1.05
2022-12-31T10:31:45.774Z,1.23
2022-12-31T10:34:16.513Z,0.75
2022-12-31T10:36:55.178Z,3.17
2022-12-31T10:39:53.431Z,1.33
2022-12-31T10:42:20.127Z,1.02
2022-12-31T10:45:04.614Z,0.63
2022-12-31T10:47:43.297Z,2.10
2022-12-31T10:50:44.147Z,1.85
2022-12-31T10:53:37.495Z,0.80
2022-12-31T10:56:48.265Z,0.85
2022-12-31T10:59:23.652Z,1.35
2022-12-31T11:01:59.796Z,1.63
2022-12-31T11:05:00.921Z,1.38
2022-12-31T11:07:46.836Z,1.48
2022-12-31T11:10:48.893Z,1.35
2022-12-31T11:13:24.708Z,1.02
2022-12-31T11:16:00.512Z,1.65
2022-12-31T11:18:57.355Z,1.05
2022-12-31T11:21:48.906Z,0.70
2022-12-31T11:24:43.521Z,1.17
2022-12-31T11:27:23.663Z,1.52
2022-12-31T11:30:23.670Z,1.92
2022-12-31T11:33:20.905Z,3.15
2022-12-31T11:36:16.913Z,0.70
2022-12-31T11:38:51.960Z,1.77
2022-12-31T11:41:27.968Z,1.33
2022-12-31T11:44:35.670Z,0.77
2022-12-31T11:47:20.563Z,2.17
2022-12-31T11:50:09.205Z,1.20
2022-12-31T11:52:38.827Z,1.83
2022-12-31T11:55:32.835Z,1.77
2022-12-31T11:58:09.967Z,2.03
2022-12-31T12:00:38.133Z,2.42
2022-12-31T12:03:10.174Z,1.25
2022-12-31T12:05:39.191Z,1.85
2022-12-31T12:08:06.761Z,2.28
2022-12-31T12:10:51.945Z,2.35
2022-12-31T12:13:23.633Z,1.08
2022-12-31T12:15:54.617Z,2.83
2022-12-31T12:18:36.894Z,1.50
2022-12-31T12:21:17.340Z,1.85
2022-12-31T12:24:13.257Z,1.13
2022-12-31T12:26:42.209Z,0.80
2022-12-31T12:29:15.270Z,1.35
2022-12-31T12:31:56.014Z,1.42
2022-12-31T12:34:27.786Z,1.63
2022-12-31T12:36:54.531Z,2.15
2022-12-31T12:39:27.137Z,2.03
2022-12-31T12:42:03.862Z,1.50
2022-12-31T12:44:31.687Z,1.10
2022-12-31T12:47:13.229Z,1.02
2022-12-31T12:49:54.609Z,2.28
2022-12-31T12:52:38.620Z,1.40
2022-12-31T12:55:14.333Z,2.47
2022-12-31T12:57:47.059Z,1.27
2022-12-31T13:00:20.222Z,1.65
2022-12-31T13:03:15.111Z,1.05
2022-12-31T13:06:03.606Z,0.82
2022-12-31T13:08:43.504Z,1.33
2022-12-31T13:11:27.511Z,1.65
2022-12-31T13:14:17.648Z,1.08
2022-12-31T13:17:08.722Z,1.55
2022-12-31T13:19:44.437Z,1.52
2022-12-31T13:22:29.984Z,1.02
2022-12-31T13:25:03.980Z,1.95
2022-12-31T13:27:43.787Z,1.38
2022-12-31T13:30:17.776Z,1.60
2022-12-31T13:33:27.169Z,2.25
2022-12-31T13:36:00.965Z,1.02
2022-12-31T13:38:41.168Z,0.57
2022-12-31T13:41:27.630Z,1.05
2022-12-31T13:44:04.515Z,1.33
2022-12-31T13:46:50.363Z,2.28
2022-12-31T13:49:24.047Z,1.67
2022-12-31T13:52:10.106Z,1.35
2022-12-31T13:55:19.574Z,1.70
2022-12-31T13:58:01.398Z,0.77
2022-12-31T14:00:45.407Z,0.95
2022-12-31T14:03:40.132Z,0.82
2022-12-31T14:06:10.798Z,1.25
2022-12-31T14:08:37.602Z,2.35
2022-12-31T14:11:26.229Z,1.10
2022-12-31T14:14:12.128Z,1.52
2022-12-31T14:17:18.116Z,1.30
2022-12-31T14:19:59.619Z,2.25
2022-12-31T14:22:53.346Z,1.10
2022-12-31T14:25:33.578Z,0.70
2022-12-31T14:28:03.219Z,2.13
2022-12-31T14:30:50.437Z,0.63
2022-12-31T14:33:17.119Z,0.77
2022-12-31T14:35:43.868Z,1.23
2022-12-31T14:38:36.259Z,1.50
2022-12-31T14:41:21.982Z,0.63
2022-12-31T14:43:57.701Z,1.15
2022-12-31T14:46:54.026Z,0.70
2022-12-31T14:49:57.542Z,0.70
2022-12-31T14:52:34.888Z,1.10
2022-12-31T14:55:10.155Z,1.58
2022-12-31T14:58:17.245Z,0.80
2022-12-31T15:00:38.663Z,1.30
2022-12-31T15:03:25.391Z,2.25
2022-12-31T15:06:31.143Z,0.65
2022-12-31T15:09:10.280Z,1.10
2022-12-31T15:11:39.881Z,1.60
2022-12-31T15:14:47.472Z,1.00
2022-12-31T15:17:17.079Z,1.55
2022-12-31T15:20:02.575Z,1.42
2022-12-31T15:22:49.232Z,1.65
2022-12-31T15:25:21.159Z,2.20
2022-12-31T15:27:49.932Z,1.70
2022-12-31T15:30:29.467Z,1.52
2022-12-31T15:33:03.248Z,1.25
2022-12-31T15:35:46.625Z,0.60
2022-12-31T15:38:13.306Z,1.55
2022-12-31T15:40:48.907Z,1.80
2022-12-31T15:43:24.089Z,0.77
2022-12-31T15:45:54.183Z,1.60
2022-12-31T15:48:47.917Z,0.70
2022-12-31T15:51:24.015Z,1.88
2022-12-31T15:53:54.552Z,0.98
2022-12-31T15:56:49.650Z,0.98
2022-12-31T15:59:18.561Z,2.10
2022-12-31T16:01:46.567Z,1.88
2022-12-31T16:04:20.983Z,1.38
2022-12-31T16:06:50.909Z,1.30
2022-12-31T16:09:25.245Z,1.02
2022-12-31T16:11:54.330Z,1.63
2022-12-31T16:14:43.630Z,1.75
2022-12-31T16:17:34.255Z,1.33
2022-12-31T16:20:03.212Z,0.95
2022-12-31T16:22:39.984Z,0.98
2022-12-31T16:25:30.290Z,3.08
2022-12-31T16:28:03.594Z,1.10
2022-12-31T16:30:32.432Z,1.88
2022-12-31T16:33:05.159Z,1.25
2022-12-31T16:35:36.767Z,3.33
2022-12-31T16:38:15.889Z,0.70
2022-12-31T16:41:01.947Z,0.90
2022-12-31T16:43:49.710Z,1.73
2022-12-31T16:46:29.828Z,2.40
2022-12-31T16:49:00.131Z,3.97
2022-12-31T16:51:33.498Z,3.85
2022-12-31T16:54:02.187Z,4.53
2022-12-31T16:56:36.863Z,4.70
2022-12-31T17:01:36.694Z,5.20
2022-12-31T17:04:10.833Z,3.53
2022-12-31T17:09:21.443Z,2.40
2022-12-31T17:12:16.113Z,2.15
2022-12-31T17:14:51.327Z,1.27
2022-12-31T17:20:25.849Z,2.47
2022-12-31T17:23:00.256Z,1.42
2022-12-31T17:25:29.913Z,2.78
2022-12-31T17:28:00.826Z,2.28
2022-12-31T17:30:32.477Z,2.90
2022-12-31T17:33:02.374Z,2.13
2022-12-31T17:35:37.283Z,1.45
2022-12-31T17:38:22.310Z,1.55
2022-12-31T17:40:52.264Z,3.33
2022-12-31T17:43:22.075Z,1.63
2022-12-31T17:45:51.813Z,2.25
2022-12-31T17:48:20.387Z,1.85
2022-12-31T17:50:48.891Z,1.52
2022-12-31T17:53:16.698Z,2.42
2022-12-31T17:55:45.829Z,1.77
2022-12-31T17:58:34.651Z,3.90
2022-12-31T18:01:05.061Z,2.83
2022-12-31T18:03:35.512Z,3.45
2022-12-31T18:06:02.446Z,2.15
2022-12-31T18:08:29.172Z,1.77
2022-12-31T18:10:56.474Z,1.75
2022-12-31T18:13:25.518Z,2.05
2022-12-31T18:15:53.714Z,2.60
2022-12-31T18:18:26.496Z,2.92
2022-12-31T18:21:02.615Z,1.70
2022-12-31T18:23:35.371Z,2.03
2022-12-31T18:26:02.127Z,2.38
2022-12-31T18:28:30.335Z,2.45
2022-12-31T18:31:09.815Z,1.92
2022-12-31T18:33:36.726Z,2.75
2022-12-31T18:36:10.790Z,2.08
2022-12-31T18:38:40.220Z,2.40
2022-12-31T18:41:28.859Z,3.72
2022-12-31T18:44:03.602Z,2.15
2022-12-31T18:48:57.109Z,2.63
2022-12-31T18:51:31.397Z,1.95
2022-12-31T18:54:06.703Z,3.15
2022-12-31T18:56:33.501Z,1.88
2022-12-31T18:59:08.820Z,2.53
2022-12-31T19:01:39.275Z,3.78
2022-12-31T19:04:26.935Z,3.83
2022-12-31T19:06:55.252Z,2.97
2022-12-31T19:09:44.709Z,2.30
2022-12-31T19:12:14.305Z,2.70
2022-12-31T19:14:41.151Z,3.33
2022-12-31T19:19:37.527Z,3.40
2022-12-31T19:22:04.354Z,2.80
2022-12-31T19:24:31.135Z,3.28
2022-12-31T19:26:57.925Z,4.07
2022-12-31T19:29:30.407Z,4.07
2022-12-31T19:32:02.262Z,3.85
2022-12-31T19:34:30.516Z,4.43
2022-12-31T19:36:57.478Z,4.70
2022-12-31T19:39:34.424Z,4.53
2022-12-31T19:42:04.912Z,4.53
2022-12-31T19:44:31.747Z,4.22
2022-12-31T19:46:58.807Z,3.65
2022-12-31T19:49:26.019Z,3.03
2022-12-31T19:51:52.867Z,3.72
2022-12-31T19:54:27.924Z,4.75
2022-12-31T19:56:54.641Z,3.20
2022-12-31T19:59:24.476Z,2.80
2022-12-31T20:01:51.331Z,3.33
2022-12-31T20:04:18.943Z,2.75
2022-12-31T20:06:45.898Z,3.92
2022-12-31T20:09:12.879Z,3.60
2022-12-31T20:11:39.607Z,3.35
2022-12-31T20:14:06.415Z,3.85
2022-12-31T20:16:34.042Z,5.10
2022-12-31T20:19:01.301Z,2.80
2022-12-31T20:21:29.167Z,2.83
2022-12-31T20:23:56.205Z,4.75
2022-12-31T20:26:24.377Z,4.40
2022-12-31T20:28:52.318Z,3.95
2022-12-31T20:31:24.909Z,3.50
2022-12-31T20:33:54.002Z,3.35
2022-12-31T20:36:21.392Z,4.80
2022-12-31T20:38:48.383Z,5.57
2022-12-31T20:41:20.303Z,4.28
2022-12-31T20:43:54.013Z,13.32
2022-12-31T20:46:22.616Z,22.20
2022-12-31T20:48:51.449Z,4.80
2022-12-31T20:51:19.339Z,4.28
2022-12-31T20:53:58.069Z,4.43
2022-12-31T20:56:26.817Z,7.55
2022-12-31T20:58:53.602Z,4.80
2022-12-31T21:01:21.449Z,5.00
2022-12-31T21:04:06.304Z,5.07
2022-12-31T21:06:40.715Z,4.15
2022-12-31T21:09:08.590Z,4.78
2022-12-31T21:11:54.055Z,5.13
2022-12-31T21:14:21.415Z,5.97
2022-12-31T21:16:48.207Z,5.80
2022-12-31T21:19:15.110Z,6.20
2022-12-31T21:21:42.146Z,4.55
2022-12-31T21:24:09.151Z,5.10
2022-12-31T21:26:35.931Z,4.82
2022-12-31T21:29:02.753Z,5.18
2022-12-31T21:31:29.552Z,5.10
2022-12-31T21:33:56.440Z,5.25
2022-12-31T21:36:23.388Z,5.45
2022-12-31T21:38:50.600Z,4.72
2022-12-31T21:41:35.795Z,7.60
2022-12-31T21:46:35.955Z,6.65
2022-12-31T21:49:02.786Z,7.25
2022-12-31T21:51:30.119Z,7.55
2022-12-31T21:53:57.265Z,7.20
2022-12-31T21:56:24.143Z,6.75
2022-12-31T21:59:14.718Z,5.13
2022-12-31T22:02:01.427Z,5.25
2022-12-31T22:05:01.428Z,6.63
2022-12-31T22:07:21.435Z,6.85
2022-12-31T22:09:48.639Z,6.78
2022-12-31T22:12:23.941Z,6.35
2022-12-31T22:15:14.723Z,5.28
2022-12-31T22:17:51.195Z,5.80
2022-12-31T22:20:30.107Z,8.07
2022-12-31T22:22:57.042Z,7.97
2022-12-31T22:25:41.191Z,6.05
2022-12-31T22:28:37.419Z,5.22
2022-12-31T22:31:06.036Z,6.35
2022-12-31T22:33:32.859Z,5.63
2022-12-31T22:36:08.207Z,6.03
2022-12-31T22:38:42.012Z,5.80
2022-12-31T22:41:12.015Z,5.55
2022-12-31T22:43:41.643Z,5.75
2022-12-31T22:46:13.974Z,5.05
2022-12-31T22:48:41.912Z,5.35
2022-12-31T22:51:15.973Z,4.97
2022-12-31T22:53:48.887Z,5.65
2022-12-31T22:56:18.268Z,5.82
2022-12-31T22:58:45.678Z,6.75
2022-12-31T23:01:24.818Z,7.45
2022-12-31T23:03:57.761Z,6.68
2022-12-31T23:06:31.249Z,6.95
2022-12-31T23:09:17.642Z,7.45
2022-12-31T23:11:44.834Z,7.55
2022-12-31T23:14:35.725Z,8.77
2022-12-31T23:17:30.297Z,10.30
2022-12-31T23:20:27.030Z,10.73
2022-12-31T23:23:12.418Z,8.75
2022-12-31T23:25:43.254Z,7.80
2022-12-31T23:28:16.393Z,18.48
2022-12-31T23:30:46.526Z,23.85
2022-12-31T23:33:24.959Z,25.33
2022-12-31T23:36:02.419Z,23.77
2022-12-31T23:38:29.161Z,19.20
2022-12-31T23:40:55.911Z,22.88
2022-12-31T23:43:22.803Z,22.33
2022-12-31T23:45:51.211Z,19.02
2022-12-31T23:48:20.407Z,17.33
2022-12-31T23:50:53.481Z,17.33
2022-12-31T23:53:21.431Z,18.17
2022-12-31T23:55:55.067Z,16.42
2022-12-31T23:58:22.701Z,16.42
